createdAt,value
2022-10-15T00:01:39.845Z,100657.78
2022-10-15T00:04:06.612Z,100659.81
2022-10-15T00:06:34.823Z,100664.50
2022-10-15T00:09:01.928Z,100660.44
2022-10-15T00:11:29.324Z,100665.31
2022-10-15T00:13:58.431Z,100658.75
2022-10-15T00:16:27.020Z,100659.34
2022-10-15T00:18:56.365Z,100656.28
2022-10-15T00:21:23.137Z,100660.38
2022-10-15T00:23:51.722Z,100656.44
2022-10-15T00:26:20.046Z,100661.38
2022-10-15T00:28:47.321Z,100656.63
2022-10-15T00:31:16.034Z,100659.69
2022-10-15T00:33:43.546Z,100652.09
2022-10-15T00:36:13.574Z,100649.59
2022-10-15T00:38:40.332Z,100651.88
2022-10-15T00:41:12.830Z,100653.91
2022-10-15T00:43:42.507Z,100658.41
2022-10-15T00:46:17.895Z,100659.41
2022-10-15T00:48:48.287Z,100670.28
2022-10-15T00:51:17.396Z,100664.34
2022-10-15T00:53:44.739Z,100662.88
2022-10-15T00:56:13.729Z,100663.88
2022-10-15T00:58:40.917Z,100657.13
2022-10-15T01:01:07.730Z,100655.69
2022-10-15T01:03:35.913Z,100652.59
2022-10-15T01:06:03.826Z,100653.81
2022-10-15T01:08:30.539Z,100649.50
2022-10-15T01:11:10.449Z,100651.34
2022-10-15T01:13:49.442Z,100648.66
2022-10-15T01:16:20.192Z,100652.16
2022-10-15T01:18:54.261Z,100642.31
2022-10-15T01:21:29.390Z,100644.16
2022-10-15T01:24:49.912Z,100634.97
2022-10-15T01:27:27.619Z,100639.28
2022-10-15T01:30:21.177Z,100640.06
2022-10-15T01:33:00.136Z,100633.97
2022-10-15T01:35:36.415Z,100631.06
2022-10-15T01:38:10.104Z,100630.06
2022-10-15T01:40:44.759Z,100628.41
2022-10-15T01:43:15.792Z,100633.53
2022-10-15T01:45:49.317Z,100630.69
2022-10-15T01:48:17.946Z,100623.34
2022-10-15T01:50:47.698Z,100622.09
2022-10-15T01:53:17.413Z,100626.41
2022-10-15T01:55:47.461Z,100618.22
2022-10-15T01:58:16.214Z,100612.69
2022-10-15T02:00:44.742Z,100612.28
2022-10-15T02:03:11.567Z,100615.78
2022-10-15T02:05:42.372Z,100611.91
2022-10-15T02:08:19.735Z,100604.53
2022-10-15T02:10:54.099Z,100611.47
2022-10-15T02:13:25.791Z,100616.81
2022-10-15T02:16:02.179Z,100615.59
2022-10-15T02:18:37.046Z,100610.72
2022-10-15T02:21:10.064Z,100613.97
2022-10-15T02:23:43.079Z,100604.78
2022-10-15T02:26:12.254Z,100601.91
2022-10-15T02:28:44.224Z,100603.34
2022-10-15T02:31:15.226Z,100598.63
2022-10-15T02:33:43.041Z,100592.91
2022-10-15T02:36:09.877Z,100593.75
2022-10-15T02:38:38.771Z,100587.16
2022-10-15T02:41:07.654Z,100588.63
2022-10-15T02:43:35.518Z,100584.13
2022-10-15T02:46:02.154Z,100575.28
2022-10-15T02:48:30.241Z,100575.28
2022-10-15T02:50:57.133Z,100579.59
2022-10-15T02:53:23.778Z,100575.09
2022-10-15T02:55:50.347Z,100572.44
2022-10-15T02:58:16.995Z,100570.59
2022-10-15T03:00:43.663Z,100564.22
2022-10-15T03:03:10.921Z,100559.69
2022-10-15T03:05:39.004Z,100556.84
2022-10-15T03:08:05.711Z,100554.19
2022-10-15T03:10:32.340Z,100548.84
2022-10-15T03:13:02.887Z,100548.03
2022-10-15T03:15:29.780Z,100546.38
2022-10-15T03:17:56.540Z,100549.25
2022-10-15T03:20:23.431Z,100541.66
2022-10-15T03:22:51.436Z,100540.22
2022-10-15T03:25:18.091Z,100540.63
2022-10-15T03:27:44.756Z,100544.50
2022-10-15T03:30:11.937Z,100538.56
2022-10-15T03:32:40.556Z,100546.56
2022-10-15T03:35:08.432Z,100543.06
2022-10-15T03:37:35.040Z,100527.31
2022-10-15T03:40:03.506Z,100527.50
2022-10-15T03:42:30.088Z,100536.31
2022-10-15T03:44:56.912Z,100534.28
2022-10-15T03:47:23.490Z,100527.06
2022-10-15T03:49:50.121Z,100530.78
2022-10-15T03:52:17.566Z,100531.59
2022-10-15T03:54:44.287Z,100523.38
2022-10-15T03:57:13.616Z,100529.16
2022-10-15T03:59:40.389Z,100527.13
2022-10-15T04:02:07.167Z,100536.53
2022-10-15T04:04:33.907Z,100532.66
2022-10-15T04:07:00.604Z,100533.28
2022-10-15T04:09:27.249Z,100535.50
2022-10-15T04:11:53.882Z,100533.03
2022-10-15T04:14:21.822Z,100535.13
2022-10-15T04:16:48.523Z,100531.19
2022-10-15T04:19:16.020Z,100541.88
2022-10-15T04:21:42.918Z,100538.38
2022-10-15T04:24:09.572Z,100540.84
2022-10-15T04:26:36.390Z,100537.34
2022-10-15T04:29:03.073Z,100545.97
2022-10-15T04:31:32.448Z,100541.06
2022-10-15T04:33:59.143Z,100549.66
2022-10-15T04:36:25.785Z,100545.78
2022-10-15T04:38:52.794Z,100544.78
2022-10-15T04:41:19.437Z,100540.84
2022-10-15T04:43:46.090Z,100546.00
2022-10-15T04:46:12.680Z,100542.94
2022-10-15T04:48:43.126Z,100540.03
2022-10-15T04:51:12.946Z,100536.97
2022-10-15T04:53:40.581Z,100541.09
2022-10-15T04:56:10.420Z,100533.47
2022-10-15T04:58:37.212Z,100530.41
2022-10-15T05:01:06.271Z,100528.16
2022-10-15T05:03:36.488Z,100528.56
2022-10-15T05:06:09.970Z,100538.59
2022-10-15T05:08:38.127Z,100535.75
2022-10-15T05:11:06.909Z,100536.97
2022-10-15T05:13:34.218Z,100538.41
2022-10-15T05:16:09.596Z,100534.50
2022-10-15T05:18:36.177Z,100532.44
2022-10-15T05:21:03.138Z,100537.38
2022-10-15T05:23:31.316Z,100537.75
2022-10-15T05:25:59.936Z,100533.03
2022-10-15T05:28:26.678Z,100535.31
2022-10-15T05:30:53.367Z,100541.84
2022-10-15T05:33:20.832Z,100542.47
2022-10-15T05:35:48.007Z,100542.91
2022-10-15T05:38:14.653Z,100546.19
2022-10-15T05:40:47.881Z,100546.63
2022-10-15T05:43:14.690Z,100543.94
2022-10-15T05:45:41.495Z,100549.66
2022-10-15T05:48:08.306Z,100552.97
2022-10-15T05:50:34.950Z,100551.94
2022-10-15T05:53:01.620Z,100554.16
2022-10-15T05:55:28.175Z,100566.28
2022-10-15T05:58:00.465Z,100562.34
2022-10-15T06:00:27.079Z,100564.81
2022-10-15T06:05:20.206Z,100562.78
2022-10-15T06:07:46.767Z,100571.41
2022-10-15T06:10:13.605Z,100564.81
2022-10-15T06:12:41.399Z,100554.75
2022-10-15T06:15:10.490Z,100557.00
2022-10-15T06:17:37.406Z,100554.09
2022-10-15T06:20:08.151Z,100547.53
2022-10-15T06:22:35.010Z,100547.34
2022-10-15T06:25:01.797Z,100545.28
2022-10-15T06:27:28.495Z,100549.38
2022-10-15T06:29:55.110Z,100545.47
2022-10-15T06:32:24.299Z,100538.84
2022-10-15T06:34:51.070Z,100545.84
2022-10-15T06:37:17.665Z,100550.78
2022-10-15T06:39:44.560Z,100558.59
2022-10-15T06:42:11.118Z,100557.31
2022-10-15T06:44:37.884Z,100554.44
2022-10-15T06:47:04.710Z,100554.25
2022-10-15T06:49:32.690Z,100556.47
2022-10-15T06:52:03.412Z,100560.78
2022-10-15T06:54:30.624Z,100554.41
2022-10-15T06:56:57.313Z,100550.50
2022-10-15T06:59:24.555Z,100547.63
2022-10-15T07:01:51.317Z,100552.53
2022-10-15T07:04:17.908Z,100553.16
2022-10-15T07:06:45.934Z,100548.41
2022-10-15T07:09:12.547Z,100555.38
2022-10-15T07:11:40.194Z,100556.81
2022-10-15T07:14:06.918Z,100553.94
2022-10-15T07:16:33.946Z,100556.59
2022-10-15T07:19:00.542Z,100559.06
2022-10-15T07:21:27.226Z,100553.50
2022-10-15T07:23:55.275Z,100561.91
2022-10-15T07:26:22.021Z,100563.56
2022-10-15T07:28:48.757Z,100566.03
2022-10-15T07:31:15.438Z,100567.63
2022-10-15T07:33:43.014Z,100568.25
2022-10-15T07:36:12.781Z,100563.72
2022-10-15T07:38:42.320Z,100562.69
2022-10-15T07:41:11.022Z,100550.78
2022-10-15T07:43:37.768Z,100556.69
2022-10-15T07:46:05.684Z,100558.34
2022-10-15T07:48:32.933Z,100553.81
2022-10-15T07:51:01.488Z,100556.28
2022-10-15T07:53:28.187Z,100548.28
2022-10-15T07:55:58.863Z,100539.81
2022-10-15T07:58:26.987Z,100536.09
2022-10-15T08:00:53.826Z,100551.72
2022-10-15T08:03:20.684Z,100553.38
2022-10-15T08:05:47.391Z,100546.16
2022-10-15T08:08:14.079Z,100544.91
2022-10-15T08:10:40.719Z,100551.69
2022-10-15T08:13:07.433Z,100561.13
2022-10-15T08:15:39.061Z,100554.50
2022-10-15T08:18:05.773Z,100553.31
2022-10-15T08:20:34.484Z,100545.66
2022-10-15T08:23:01.082Z,100547.28
2022-10-15T08:25:27.670Z,100551.41
2022-10-15T08:27:54.656Z,100541.31
2022-10-15T08:30:21.436Z,100531.81
2022-10-15T08:32:49.443Z,100530.31
2022-10-15T08:35:16.131Z,100537.09
2022-10-15T08:37:42.795Z,100533.19
2022-10-15T08:40:12.588Z,100521.00
2022-10-15T08:42:41.814Z,100516.06
2022-10-15T08:45:13.997Z,100510.03
2022-10-15T08:47:43.867Z,100513.09
2022-10-15T08:50:26.486Z,100514.50
2022-10-15T08:52:55.908Z,100509.75
2022-10-15T08:57:55.782Z,100508.25
2022-10-15T09:00:24.836Z,100509.69
2022-10-15T09:02:58.156Z,100511.34
2022-10-15T09:05:39.017Z,100509.03
2022-10-15T09:08:18.011Z,100498.09
2022-10-15T09:10:48.940Z,100500.09
2022-10-15T09:13:21.972Z,100496.38
2022-10-15T09:15:52.586Z,100502.13
2022-10-15T09:18:23.707Z,100493.63
2022-10-15T09:20:53.701Z,100490.53
2022-10-15T09:23:22.800Z,100492.78
2022-10-15T09:25:56.928Z,100483.47
2022-10-15T09:28:30.029Z,100475.00
2022-10-15T09:30:58.342Z,100470.81
2022-10-15T09:33:36.854Z,100469.78
2022-10-15T09:36:18.316Z,100463.19
2022-10-15T09:38:58.076Z,100468.06
2022-10-15T09:41:35.328Z,100467.41
2022-10-15T09:44:05.668Z,100464.28
2022-10-15T09:46:33.932Z,100451.25
2022-10-15T09:49:09.050Z,100460.47
2022-10-15T09:51:44.051Z,100450.34
2022-10-15T09:54:17.767Z,100443.50
2022-10-15T09:56:48.396Z,100437.72
2022-10-15T09:59:17.461Z,100441.22
2022-10-15T10:01:57.689Z,100458.47
2022-10-15T10:04:29.884Z,100453.72
2022-10-15T10:07:04.615Z,100444.41
2022-10-15T10:09:36.355Z,100443.13
2022-10-15T10:12:06.856Z,100442.91
2022-10-15T10:14:36.190Z,100433.59
2022-10-15T10:17:08.647Z,100421.38
2022-10-15T10:19:35.410Z,100423.81
2022-10-15T10:22:14.043Z,100422.56
2022-10-15T10:24:40.525Z,100419.06
2022-10-15T10:27:18.773Z,100417.22
2022-10-15T10:29:53.272Z,100435.72
2022-10-15T10:32:22.179Z,100430.34
2022-10-15T10:34:52.722Z,100423.13
2022-10-15T10:37:22.599Z,100427.44
2022-10-15T10:39:53.517Z,100422.69
2022-10-15T10:42:32.651Z,100415.69
2022-10-15T10:45:22.276Z,100410.34
2022-10-15T10:47:49.926Z,100415.09
2022-10-15T10:50:29.304Z,100412.19
2022-10-15T10:52:59.991Z,100411.38
2022-10-15T10:55:37.934Z,100412.19
2022-10-15T10:58:04.638Z,100413.00
2022-10-15T11:00:39.006Z,100413.59
2022-10-15T11:03:10.195Z,100415.25
2022-10-15T11:05:43.195Z,100403.72
2022-10-15T11:08:21.509Z,100402.63
2022-10-15T11:10:57.319Z,100408.81
2022-10-15T11:13:44.820Z,100411.28
2022-10-15T11:16:20.770Z,100404.06
2022-10-15T11:19:13.628Z,100402.78
2022-10-15T11:21:58.893Z,100392.88
2022-10-15T11:24:42.604Z,100391.84
2022-10-15T11:35:52.424Z,100382.28
2022-10-15T11:38:27.722Z,100383.09
2022-10-15T11:41:16.314Z,100386.59
2022-10-15T11:44:21.555Z,100383.69
2022-10-15T11:46:55.822Z,100383.69
2022-10-15T11:49:41.460Z,100370.03
2022-10-15T11:52:25.511Z,100364.66
2022-10-15T11:55:08.967Z,100374.13
2022-10-15T11:57:40.399Z,100372.84
2022-10-15T12:00:20.451Z,100369.69
2022-10-15T12:02:49.701Z,100367.00
2022-10-15T12:05:20.896Z,100363.88
2022-10-15T12:07:50.170Z,100369.25
2022-10-15T12:10:33.264Z,100361.78
2022-10-15T12:13:11.791Z,100360.72
2022-10-15T12:15:46.284Z,100352.44
2022-10-15T12:18:20.400Z,100351.41
2022-10-15T12:20:47.240Z,100359.22
2022-10-15T12:23:39.342Z,100357.38
2022-10-15T12:26:28.527Z,100362.25
2022-10-15T12:29:00.769Z,100354.19
2022-10-15T12:31:48.909Z,100353.75
2022-10-15T12:34:30.902Z,100357.03
2022-10-15T12:37:03.672Z,100345.81
2022-10-15T12:39:51.264Z,100344.53
2022-10-15T12:42:26.119Z,100342.19
2022-10-15T12:44:56.008Z,100336.59
2022-10-15T12:47:48.929Z,100339.63
2022-10-15T12:50:20.104Z,100339.16
2022-10-15T12:52:59.137Z,100340.56
2022-10-15T12:55:31.706Z,100347.31
2022-10-15T12:58:04.881Z,100346.03
2022-10-15T13:00:46.397Z,100343.94
2022-10-15T13:03:31.594Z,100346.13
2022-10-15T13:06:13.991Z,100347.53
2022-10-15T13:08:44.479Z,100350.63
2022-10-15T13:11:22.012Z,100353.03
2022-10-15T13:13:50.969Z,100352.56
2022-10-15T13:16:20.625Z,100353.97
2022-10-15T13:18:50.555Z,100350.81
2022-10-15T13:21:17.558Z,100352.00
2022-10-15T13:23:48.757Z,100350.44
2022-10-15T13:26:20.777Z,100347.31
2022-10-15T13:28:49.064Z,100340.41
2022-10-15T13:31:24.723Z,100349.59
2022-10-15T13:33:55.006Z,100342.94
2022-10-15T13:36:24.186Z,100351.59
2022-10-15T13:38:57.031Z,100353.53
2022-10-15T13:41:26.063Z,100353.09
2022-10-15T13:43:58.494Z,100354.22
2022-10-15T13:46:28.366Z,100365.31
2022-10-15T13:49:00.387Z,100366.47
2022-10-15T13:51:33.684Z,100359.00
2022-10-15T13:54:02.581Z,100356.84
2022-10-15T13:56:31.370Z,100366.31
2022-10-15T13:59:01.752Z,100363.41
2022-10-15T14:01:33.607Z,100356.75
2022-10-15T14:04:01.843Z,100351.94
2022-10-15T14:06:31.066Z,100364.06
2022-10-15T14:08:59.984Z,100358.19
2022-10-15T14:11:29.207Z,100361.47
2022-10-15T14:13:59.901Z,100384.59
2022-10-15T14:16:32.966Z,100398.28
2022-10-15T14:19:09.726Z,100402.50
2022-10-15T14:21:39.156Z,100413.16
2022-10-15T14:24:07.758Z,100429.16
2022-10-15T14:26:35.087Z,100424.13
2022-10-15T14:29:02.649Z,100432.09
2022-10-15T14:31:37.950Z,100426.16
2022-10-15T14:34:05.062Z,100406.78
2022-10-15T14:36:41.058Z,100410.28
2022-10-15T14:39:28.937Z,100427.44
2022-10-15T14:41:57.719Z,100433.06
2022-10-15T14:44:25.734Z,100430.38
2022-10-15T14:47:03.580Z,100429.53
2022-10-15T14:49:33.133Z,100424.75
2022-10-15T14:52:04.934Z,100430.69
2022-10-15T14:54:36.760Z,100431.50
2022-10-15T14:57:05.070Z,100435.03
2022-10-15T14:59:36.257Z,100446.34
2022-10-15T15:02:10.327Z,100444.72
2022-10-15T15:04:42.877Z,100449.50
2022-10-15T15:07:15.810Z,100464.22
2022-10-15T15:09:42.625Z,100469.59
2022-10-15T15:12:16.594Z,100466.31
2022-10-15T15:14:43.532Z,100460.38
2022-10-15T15:17:34.746Z,100480.47
2022-10-15T15:20:01.575Z,100468.31
2022-10-15T15:22:31.928Z,100467.28
2022-10-15T15:25:00.667Z,100482.78
2022-10-15T15:27:29.641Z,100484.91
2022-10-15T15:29:57.222Z,100489.69
2022-10-15T15:32:25.719Z,100496.09
2022-10-15T15:34:52.945Z,100500.06
2022-10-15T15:37:21.688Z,100505.69
2022-10-15T15:39:48.985Z,100500.53
2022-10-15T15:42:18.820Z,100514.19
2022-10-15T15:44:45.739Z,100514.66
2022-10-15T15:47:13.050Z,100522.13
2022-10-15T15:49:43.158Z,100517.00
2022-10-15T15:52:18.815Z,100506.25
2022-10-15T15:54:48.980Z,100504.84
2022-10-15T15:57:15.848Z,100515.25
2022-10-15T15:59:42.515Z,100518.97
2022-10-15T16:02:11.807Z,100514.66
2022-10-15T16:04:39.302Z,100516.75
2022-10-15T16:07:10.282Z,100521.53
2022-10-15T16:09:40.145Z,100522.59
2022-10-15T16:12:07.042Z,100535.59
2022-10-15T16:14:33.830Z,100536.91
2022-10-15T16:17:00.867Z,100535.72
2022-10-15T16:19:27.461Z,100543.41
2022-10-15T16:21:54.117Z,100537.69
2022-10-15T16:24:22.120Z,100541.06
2022-10-15T16:26:48.814Z,100540.47
2022-10-15T16:29:16.987Z,100543.63
2022-10-15T16:31:43.740Z,100553.75
2022-10-15T16:34:10.351Z,100557.47
2022-10-15T16:36:37.167Z,100558.75
2022-10-15T16:39:04.075Z,100564.59
2022-10-15T16:41:32.074Z,100563.38
2022-10-15T16:43:58.914Z,100566.53
2022-10-15T16:46:25.898Z,100571.31
2022-10-15T16:48:54.322Z,100578.19
2022-10-15T16:51:21.629Z,100581.50
2022-10-15T16:53:49.639Z,100578.94
2022-10-15T16:56:18.523Z,100589.28
2022-10-15T16:58:47.390Z,100588.91
2022-10-15T17:01:16.612Z,100592.06
2022-10-15T17:03:45.484Z,100595.19
2022-10-15T17:06:13.768Z,100614.38
2022-10-15T17:08:43.620Z,100614.25
2022-10-15T17:11:11.105Z,100615.53
2022-10-15T17:13:37.732Z,100613.28
2022-10-15T17:16:11.750Z,100622.56
2022-10-15T17:18:39.557Z,100619.53
2022-10-15T17:21:09.177Z,100623.94
2022-10-15T17:23:36.315Z,100637.97
2022-10-15T17:26:05.175Z,100627.72
2022-10-15T17:28:31.748Z,100635.34
2022-10-15T17:31:03.063Z,100648.38
2022-10-15T17:33:31.103Z,100650.66
2022-10-15T17:36:01.728Z,100664.50
2022-10-15T17:38:28.364Z,100665.53
2022-10-15T17:40:55.148Z,100667.81
2022-10-15T17:43:21.844Z,100667.06
2022-10-15T17:45:48.507Z,100669.59
2022-10-15T17:48:15.736Z,100675.34
2022-10-15T17:50:45.419Z,100681.38
2022-10-15T17:53:13.427Z,100675.88
2022-10-15T17:55:40.352Z,100673.00
2022-10-15T17:58:07.507Z,100684.16
2022-10-15T18:00:34.238Z,100691.22
2022-10-15T18:03:01.284Z,100688.34
2022-10-15T18:05:28.249Z,100691.69
2022-10-15T18:07:56.276Z,100690.91
2022-10-15T18:10:23.083Z,100687.22
2022-10-15T18:12:49.765Z,100692.63
2022-10-15T18:15:16.510Z,100698.84
2022-10-15T18:17:43.071Z,100701.31
2022-10-15T18:20:10.295Z,100707.94
2022-10-15T18:22:36.913Z,100709.16
2022-10-15T18:25:05.925Z,100709.56
2022-10-15T18:27:34.537Z,100714.09
2022-10-15T18:30:01.515Z,100716.19
2022-10-15T18:32:28.211Z,100724.41
2022-10-15T18:34:54.998Z,100724.00
2022-10-15T18:37:21.644Z,100716.22
2022-10-15T18:39:48.254Z,100725.06
2022-10-15T18:42:16.164Z,100726.09
2022-10-15T18:44:42.966Z,100725.28
2022-10-15T18:47:09.750Z,100734.13
2022-10-15T18:49:36.412Z,100728.56
2022-10-15T18:52:10.808Z,100724.25
2022-10-15T18:54:48.443Z,100723.63
2022-10-15T18:57:16.415Z,100730.00
2022-10-15T18:59:43.174Z,100733.69
2022-10-15T19:02:10.050Z,100736.34
2022-10-15T19:04:36.888Z,100726.09
2022-10-15T19:07:04.530Z,100728.78
2022-10-15T19:09:31.546Z,100734.31
2022-10-15T19:11:58.778Z,100739.06
2022-10-15T19:14:30.731Z,100739.25
2022-10-15T19:16:58.065Z,100741.34
2022-10-15T19:19:25.595Z,100746.69
2022-10-15T19:21:53.026Z,100749.56
2022-10-15T19:24:21.487Z,100747.91
2022-10-15T19:26:49.269Z,100747.28
2022-10-15T19:29:16.104Z,100746.72
2022-10-15T19:31:45.854Z,100744.84
2022-10-15T19:34:13.263Z,100746.72
2022-10-15T19:36:42.447Z,100750.41
2022-10-15T19:39:12.542Z,100745.06
2022-10-15T19:41:40.698Z,100753.09
2022-10-15T19:44:08.914Z,100761.69
2022-10-15T19:46:35.941Z,100760.66
2022-10-15T19:49:04.132Z,100762.31
2022-10-15T19:51:31.574Z,100762.09
2022-10-15T19:54:00.110Z,100757.59
2022-10-15T19:56:27.995Z,100765.16
2022-10-15T19:58:56.058Z,100765.59
2022-10-15T20:01:22.991Z,100771.56
2022-10-15T20:03:49.716Z,100769.47
2022-10-15T20:06:18.455Z,100774.44
2022-10-15T20:08:45.010Z,100777.94
2022-10-15T20:11:12.211Z,100774.44
2022-10-15T20:13:39.340Z,100775.06
2022-10-15T20:16:07.896Z,100780.16
2022-10-15T20:18:35.370Z,100788.19
2022-10-15T20:21:07.008Z,100784.50
2022-10-15T20:23:35.102Z,100780.78
2022-10-15T20:26:04.643Z,100773.78
2022-10-15T20:28:31.547Z,100776.47
2022-10-15T20:30:58.199Z,100776.47
2022-10-15T20:33:25.009Z,100780.78
2022-10-15T20:35:55.216Z,100775.44
2022-10-15T20:38:21.986Z,100769.28
2022-10-15T20:40:50.121Z,100783.25
2022-10-15T20:43:18.365Z,100783.06
2022-10-15T20:45:46.099Z,100787.38
2022-10-15T20:48:18.327Z,100793.56
2022-10-15T20:50:49.717Z,100796.22
2022-10-15T20:53:17.082Z,100793.56
2022-10-15T20:55:44.096Z,100798.66
2022-10-15T21:00:42.423Z,100805.47
2022-10-15T21:03:09.105Z,100805.25
2022-10-15T21:05:35.685Z,100805.84
2022-10-15T21:08:02.317Z,100813.88
2022-10-15T21:10:28.977Z,100815.75
2022-10-15T21:12:55.614Z,100815.50
2022-10-15T21:15:24.028Z,100827.88
2022-10-15T21:17:50.625Z,100820.88
2022-10-15T21:20:17.433Z,100821.09
2022-10-15T21:22:44.071Z,100825.41
2022-10-15T21:25:10.697Z,100823.78
2022-10-15T21:27:38.576Z,100827.25
2022-10-15T21:30:06.244Z,100842.50
2022-10-15T21:32:34.538Z,100847.84
2022-10-15T21:35:06.176Z,100853.19
2022-10-15T21:37:34.687Z,100849.69
2022-10-15T21:40:03.796Z,100857.50
2022-10-15T21:42:32.806Z,100855.63
2022-10-15T21:44:59.471Z,100861.00
2022-10-15T21:47:26.672Z,100868.81
2022-10-15T21:49:55.568Z,100864.69
2022-10-15T21:52:22.875Z,100861.81
2022-10-15T21:54:51.671Z,100866.34
2022-10-15T21:57:18.353Z,100871.94
2022-10-15T21:59:45.304Z,100870.47
2022-10-15T22:02:12.116Z,100875.00
2022-10-15T22:04:39.121Z,100873.97
2022-10-15T22:07:09.137Z,100874.19
2022-10-15T22:09:36.199Z,100873.56
2022-10-15T22:12:03.039Z,100872.97
2022-10-15T22:14:30.441Z,100874.00
2022-10-15T22:16:57.152Z,100875.03
2022-10-15T22:19:23.827Z,100873.38
2022-10-15T22:21:50.461Z,100864.72
2022-10-15T22:24:20.638Z,100871.34
2022-10-15T22:26:49.041Z,100877.91
2022-10-15T22:29:18.782Z,100869.22
2022-10-15T22:31:45.539Z,100872.94
2022-10-15T22:34:12.290Z,100870.50
2022-10-15T22:36:39.325Z,100867.19
2022-10-15T22:39:07.804Z,100873.78
2022-10-15T22:41:40.215Z,100869.44
2022-10-15T22:44:09.216Z,100871.31
2022-10-15T22:46:37.969Z,100868.84
2022-10-15T22:49:05.627Z,100866.38
2022-10-15T22:51:32.579Z,100869.88
2022-10-15T22:54:00.099Z,100869.88
2022-10-15T22:56:28.076Z,100871.72
2022-10-15T22:58:57.870Z,100870.91
2022-10-15T23:01:26.209Z,100867.22
2022-10-15T23:03:55.672Z,100872.56
2022-10-15T23:06:23.490Z,100873.56
2022-10-15T23:08:51.656Z,100873.78
2022-10-15T23:11:22.860Z,100871.94
2022-10-15T23:13:53.731Z,100878.31
2022-10-15T23:16:23.926Z,100877.47
2022-10-15T23:18:54.583Z,100882.81
2022-10-15T23:21:27.808Z,100895.59
2022-10-15T23:23:54.947Z,100884.66
2022-10-15T23:26:22.488Z,100890.84
2022-10-15T23:28:51.434Z,100891.06
2022-10-15T23:31:19.962Z,100898.03
2022-10-15T23:33:48.335Z,100892.09
2022-10-15T23:36:15.359Z,100899.28
2022-10-15T23:38:44.765Z,100894.78
2022-10-15T23:41:11.917Z,100890.44
2022-10-15T23:43:38.979Z,100895.59
2022-10-15T23:46:05.765Z,100892.09
2022-10-15T23:48:32.642Z,100887.78
2022-10-15T23:51:03.667Z,100877.09
2022-10-15T23:53:33.084Z,100881.41
2022-10-15T23:56:01.482Z,100881.41
2022-10-15T23:58:28.102Z,100890.25
